createdAt,value
2022-08-03T00:03:27.481Z,20.68
2022-08-03T00:07:29.115Z,20.66
2022-08-03T00:11:30.810Z,20.66
2022-08-03T00:15:32.506Z,20.64
2022-08-03T00:19:34.184Z,20.63
2022-08-03T00:23:51.652Z,20.63
2022-08-03T00:27:54.423Z,20.59
2022-08-03T00:31:59.459Z,20.58
2022-08-03T00:36:02.234Z,20.57
2022-08-03T00:40:05.728Z,20.55
2022-08-03T00:44:07.342Z,20.54
2022-08-03T00:48:31.032Z,20.49
2022-08-03T00:52:32.062Z,20.50
2022-08-03T00:56:33.695Z,20.45
2022-08-03T01:00:38.904Z,20.46
2022-08-03T01:04:40.499Z,20.45
2022-08-03T01:09:06.371Z,20.43
2022-08-03T01:14:01.715Z,20.37
2022-08-03T01:18:05.921Z,20.35
2022-08-03T01:22:16.358Z,20.38
2022-08-03T01:26:18.506Z,20.37
2022-08-03T01:30:21.010Z,20.34
2022-08-03T01:34:25.247Z,20.31
2022-08-03T01:38:33.982Z,20.29
2022-08-03T01:42:37.612Z,20.28
2022-08-03T01:46:40.444Z,20.27
2022-08-03T01:50:51.266Z,20.25
2022-08-03T01:54:55.020Z,20.25
2022-08-03T01:58:58.796Z,20.23
2022-08-03T02:03:01.768Z,20.20
2022-08-03T02:07:03.970Z,20.18
2022-08-03T02:11:06.966Z,20.16
2022-08-03T02:15:10.223Z,20.12
2022-08-03T02:19:13.872Z,20.06
2022-08-03T02:23:16.584Z,20.01
2022-08-03T02:27:22.213Z,19.98
2022-08-03T02:31:29.583Z,19.96
2022-08-03T02:35:33.981Z,19.94
2022-08-03T02:39:36.729Z,19.92
2022-08-03T02:44:06.886Z,19.89
2022-08-03T02:48:05.521Z,19.84
2022-08-03T02:52:15.825Z,19.80
2022-08-03T02:56:19.703Z,19.78
2022-08-03T03:00:27.844Z,19.75
2022-08-03T03:04:33.068Z,19.69
2022-08-03T03:08:35.318Z,19.68
2022-08-03T03:12:41.839Z,19.69
2022-08-03T03:16:45.545Z,19.69
2022-08-03T03:20:54.510Z,19.70
2022-08-03T03:24:56.788Z,19.69
2022-08-03T03:29:01.689Z,19.68
2022-08-03T03:33:03.469Z,19.65
2022-08-03T03:37:06.002Z,19.64
2022-08-03T03:41:07.606Z,19.60
2022-08-03T03:45:10.226Z,19.59
2022-08-03T03:49:12.027Z,19.55
2022-08-03T03:53:14.729Z,19.50
2022-08-03T03:57:17.467Z,19.49
2022-08-03T04:01:19.647Z,19.47
2022-08-03T04:05:42.973Z,19.47
2022-08-03T04:10:14.142Z,19.45
2022-08-03T04:14:25.630Z,19.46
2022-08-03T04:18:29.772Z,19.48
2022-08-03T04:22:34.482Z,19.48
2022-08-03T04:26:39.514Z,19.49
2022-08-03T04:30:47.791Z,19.48
2022-08-03T04:34:49.493Z,19.49
2022-08-03T04:39:26.645Z,19.49
2022-08-03T04:43:30.787Z,19.50
2022-08-03T04:47:33.934Z,19.50
2022-08-03T04:51:39.038Z,19.53
2022-08-03T04:55:40.596Z,19.57
2022-08-03T04:59:42.340Z,19.57
2022-08-03T05:03:43.910Z,19.57
2022-08-03T05:07:45.702Z,19.58
2022-08-03T05:11:49.021Z,19.67
2022-08-03T05:15:50.741Z,19.74
2022-08-03T05:19:52.374Z,19.74
2022-08-03T05:23:53.994Z,19.75
2022-08-03T05:27:56.278Z,19.76
2022-08-03T05:31:58.035Z,19.81
2022-08-03T05:36:03.078Z,19.89
2022-08-03T05:40:06.083Z,19.96
2022-08-03T05:44:07.750Z,19.95
2022-08-03T05:48:09.372Z,19.98
2022-08-03T05:52:13.495Z,19.99
2022-08-03T05:56:23.600Z,20.05
2022-08-03T06:00:25.754Z,20.09
2022-08-03T06:04:27.415Z,20.13
2022-08-03T06:08:29.261Z,20.16
2022-08-03T06:12:31.236Z,20.21
2022-08-03T06:16:33.692Z,20.22
2022-08-03T06:20:35.361Z,20.22
2022-08-03T06:24:36.971Z,20.26
2022-08-03T06:28:51.563Z,20.23
2022-08-03T06:32:55.468Z,20.27
2022-08-03T06:37:01.807Z,20.30
2022-08-03T06:41:04.064Z,20.31
2022-08-03T06:45:07.388Z,20.34
2022-08-03T06:49:09.026Z,20.43
2022-08-03T06:53:18.199Z,20.50
2022-08-03T06:57:23.144Z,20.61
2022-08-03T07:01:24.757Z,20.80
2022-08-03T07:05:26.669Z,20.87
2022-08-03T07:09:28.327Z,20.93
2022-08-03T07:13:30.016Z,21.01
2022-08-03T07:17:34.262Z,21.15
2022-08-03T07:21:35.868Z,21.20
2022-08-03T07:25:37.459Z,21.17
2022-08-03T07:29:39.140Z,21.23
2022-08-03T07:33:40.737Z,21.30
2022-08-03T07:37:42.380Z,21.38
2022-08-03T07:41:56.417Z,21.52
2022-08-03T07:45:58.045Z,21.55
2022-08-03T07:49:59.711Z,21.53
2022-08-03T07:54:01.773Z,21.57
2022-08-03T07:58:09.338Z,21.52
2022-08-03T08:02:10.970Z,21.46
2022-08-03T08:06:12.718Z,21.37
2022-08-03T08:10:14.338Z,21.31
2022-08-03T08:14:15.901Z,21.34
2022-08-03T08:18:18.447Z,21.39
2022-08-03T08:22:29.990Z,21.43
2022-08-03T08:26:32.544Z,21.54
2022-08-03T08:30:34.272Z,21.67
2022-08-03T08:34:36.982Z,21.77
2022-08-03T08:38:41.981Z,21.87
2022-08-03T08:42:58.084Z,21.90
2022-08-03T08:47:03.187Z,21.94
2022-08-03T08:51:05.623Z,22.00
2022-08-03T08:55:09.632Z,22.08
2022-08-03T08:59:11.581Z,22.14
2022-08-03T09:03:14.655Z,22.23
2022-08-03T09:07:31.279Z,22.27
2022-08-03T09:12:00.392Z,22.29
2022-08-03T09:16:14.078Z,22.36
2022-08-03T09:20:15.980Z,22.39
2022-08-03T09:24:40.630Z,22.42
2022-08-03T09:28:59.388Z,22.51
2022-08-03T09:33:08.757Z,22.59
2022-08-03T09:37:16.132Z,22.65
2022-08-03T09:41:18.540Z,22.72
2022-08-03T09:45:27.137Z,22.73
2022-08-03T09:49:28.826Z,22.82
2022-08-03T09:53:30.544Z,22.86
2022-08-03T09:57:32.337Z,22.89
2022-08-03T10:01:35.379Z,22.95
2022-08-03T10:05:38.352Z,23.02
2022-08-03T10:10:29.116Z,23.08
2022-08-03T10:14:26.442Z,23.18
2022-08-03T10:18:28.043Z,23.31
2022-08-03T10:22:35.095Z,23.36
2022-08-03T10:26:39.449Z,23.41
2022-08-03T10:30:54.238Z,23.42
2022-08-03T10:35:20.962Z,23.47
2022-08-03T10:39:27.704Z,23.50
2022-08-03T10:43:51.307Z,23.62
2022-08-03T10:47:55.255Z,23.66
2022-08-03T10:51:57.143Z,23.74
2022-08-03T10:56:17.223Z,23.80
2022-08-03T11:00:49.854Z,23.90
2022-08-03T11:05:28.332Z,23.98
2022-08-03T11:09:42.020Z,24.06
2022-08-03T11:14:04.777Z,24.14
2022-08-03T11:18:12.723Z,24.24
2022-08-03T11:22:15.721Z,24.27
2022-08-03T11:26:19.502Z,24.36
2022-08-03T11:30:21.030Z,24.41
2022-08-03T11:34:29.369Z,24.51
2022-08-03T11:38:31.072Z,24.58
2022-08-03T11:42:35.352Z,24.63
2022-08-03T11:46:38.031Z,24.70
2022-08-03T11:50:39.706Z,24.82
2022-08-03T11:54:41.610Z,24.88
2022-08-03T11:59:01.746Z,24.97
2022-08-03T12:03:16.905Z,25.08
2022-08-03T12:07:19.210Z,25.15
2022-08-03T12:11:40.707Z,25.28
2022-08-03T12:15:59.507Z,25.44
2022-08-03T12:20:01.840Z,25.52
2022-08-03T12:24:04.963Z,25.55
2022-08-03T12:28:28.385Z,25.64
2022-08-03T12:32:34.492Z,25.76
2022-08-03T12:36:37.449Z,25.87
2022-08-03T12:40:39.508Z,25.99
2022-08-03T12:44:41.306Z,26.11
2022-08-03T12:49:06.555Z,26.19
2022-08-03T12:53:10.002Z,26.24
2022-08-03T12:57:15.794Z,26.40
2022-08-03T13:01:17.844Z,26.41
2022-08-03T13:05:21.403Z,26.54
2022-08-03T13:09:25.322Z,26.67
2022-08-03T13:13:39.740Z,26.77
2022-08-03T13:17:41.680Z,26.75
2022-08-03T13:22:01.615Z,26.73
2022-08-03T13:26:06.103Z,26.71
2022-08-03T13:30:08.961Z,26.76
2022-08-03T13:34:11.278Z,26.81
2022-08-03T13:38:13.013Z,26.90
2022-08-03T13:42:17.031Z,26.94
2022-08-03T13:46:20.382Z,26.99
2022-08-03T13:50:21.937Z,26.97
2022-08-03T13:54:25.154Z,26.96
2022-08-03T13:58:26.743Z,27.02
2022-08-03T14:02:28.369Z,27.11
2022-08-03T14:06:30.059Z,27.22
2022-08-03T14:10:36.240Z,27.28
2022-08-03T14:14:37.879Z,27.39
2022-08-03T14:18:41.436Z,27.40
2022-08-03T14:22:43.181Z,27.38
2022-08-03T14:26:44.832Z,27.41
2022-08-03T14:30:46.544Z,27.46
2022-08-03T14:34:48.149Z,27.40
2022-08-03T14:38:49.938Z,27.49
2022-08-03T14:42:51.631Z,27.46
2022-08-03T14:46:53.279Z,27.47
2022-08-03T14:50:55.379Z,27.41
2022-08-03T14:54:57.312Z,27.39
2022-08-03T14:58:58.935Z,27.38
2022-08-03T15:03:00.810Z,27.40
2022-08-03T15:07:02.507Z,27.38
2022-08-03T15:11:04.119Z,27.39
2022-08-03T15:15:07.044Z,27.37
2022-08-03T15:20:01.595Z,27.44
2022-08-03T15:23:30.594Z,27.48
2022-08-03T15:27:32.286Z,27.51
2022-08-03T15:31:34.511Z,27.54
2022-08-03T15:35:36.288Z,27.59
2022-08-03T15:39:58.796Z,27.60
2022-08-03T15:44:05.143Z,27.63
2022-08-03T15:48:09.298Z,27.58
2022-08-03T15:52:10.926Z,27.56
2022-08-03T15:56:16.827Z,27.58
2022-08-03T16:00:20.415Z,27.62
2022-08-03T16:04:35.145Z,27.66
2022-08-03T16:08:36.747Z,27.64
2022-08-03T16:12:38.359Z,27.62
2022-08-03T16:16:40.955Z,27.62
2022-08-03T16:20:42.810Z,27.63
2022-08-03T16:24:45.314Z,27.67
2022-08-03T16:28:46.965Z,27.73
2022-08-03T16:32:48.557Z,27.75
2022-08-03T16:36:50.216Z,27.76
2022-08-03T16:40:52.223Z,27.75
2022-08-03T16:44:53.977Z,27.77
2022-08-03T16:48:55.563Z,27.76
2022-08-03T16:52:57.260Z,27.82
2022-08-03T16:56:58.927Z,27.86
2022-08-03T17:01:00.593Z,27.90
2022-08-03T17:05:12.651Z,27.92
2022-08-03T17:09:19.039Z,27.93
2022-08-03T17:13:22.945Z,27.87
2022-08-03T17:17:37.696Z,27.90
2022-08-03T17:22:11.339Z,27.85
2022-08-03T17:26:21.090Z,27.81
2022-08-03T17:30:43.717Z,27.81
2022-08-03T17:34:47.267Z,27.77
2022-08-03T17:38:50.348Z,27.72
2022-08-03T17:42:54.435Z,27.62
2022-08-03T17:46:56.075Z,27.51
2022-08-03T17:51:04.436Z,27.37
2022-08-03T17:55:56.581Z,27.24
2022-08-03T17:59:52.793Z,27.13
2022-08-03T18:03:59.705Z,27.06
2022-08-03T18:08:03.559Z,26.94
2022-08-03T18:12:13.721Z,26.88
2022-08-03T18:16:24.467Z,26.82
2022-08-03T18:20:34.438Z,26.81
2022-08-03T18:24:44.196Z,26.69
2022-08-03T18:28:49.346Z,26.60
2022-08-03T18:33:00.386Z,26.47
2022-08-03T18:37:07.690Z,26.30
2022-08-03T18:41:15.592Z,26.16
2022-08-03T18:45:55.919Z,26.08
2022-08-03T18:49:55.594Z,25.99
2022-08-03T18:54:08.001Z,25.92
2022-08-03T18:58:17.891Z,25.85
2022-08-03T19:02:36.156Z,25.79
2022-08-03T19:06:47.162Z,25.72
2022-08-03T19:10:57.656Z,25.67
2022-08-03T19:15:13.006Z,25.61
2022-08-03T19:19:18.247Z,25.55
2022-08-03T19:23:25.078Z,25.49
2022-08-03T19:27:29.487Z,25.43
2022-08-03T19:31:35.032Z,25.38
2022-08-03T19:35:54.475Z,25.30
2022-08-03T19:39:58.510Z,25.20
2022-08-03T19:44:04.724Z,25.11
2022-08-03T19:48:10.066Z,25.03
2022-08-03T19:52:14.100Z,24.95
2022-08-03T19:56:23.631Z,24.88
2022-08-03T20:00:32.795Z,24.81
2022-08-03T20:04:38.647Z,24.75
2022-08-03T20:08:41.910Z,24.72
2022-08-03T20:15:41.367Z,24.63
2022-08-03T20:19:43.744Z,24.58
2022-08-03T20:24:03.258Z,24.56
2022-08-03T20:28:17.012Z,24.50
2022-08-03T20:32:24.634Z,24.42
2022-08-03T20:36:26.942Z,24.34
2022-08-03T20:40:29.104Z,24.33
2022-08-03T20:44:31.942Z,24.32
2022-08-03T20:48:35.830Z,24.26
2022-08-03T20:52:43.926Z,24.19
2022-08-03T20:56:52.311Z,24.11
2022-08-03T21:00:55.764Z,24.07
2022-08-03T21:05:03.190Z,24.05
2022-08-03T21:09:17.848Z,23.96
2022-08-03T21:13:24.543Z,23.88
2022-08-03T21:17:40.478Z,23.84
2022-08-03T21:21:46.634Z,23.82
2022-08-03T21:25:49.776Z,23.82
2022-08-03T21:29:53.553Z,23.77
2022-08-03T21:34:01.952Z,23.73
2022-08-03T21:38:18.946Z,23.70
2022-08-03T21:42:23.775Z,23.69
2022-08-03T21:46:29.508Z,23.63
2022-08-03T21:50:35.136Z,23.54
2022-08-03T21:54:40.791Z,23.43
2022-08-03T21:58:51.301Z,23.41
2022-08-03T22:03:03.295Z,23.41
2022-08-03T22:07:20.628Z,23.39
2022-08-03T22:11:22.590Z,23.34
2022-08-03T22:15:24.446Z,23.28
2022-08-03T22:19:26.049Z,23.23
2022-08-03T22:23:27.990Z,23.15
2022-08-03T22:27:34.180Z,23.13
2022-08-03T22:31:58.554Z,23.09
2022-08-03T22:36:00.342Z,23.07
2022-08-03T22:40:09.106Z,23.09
2022-08-03T22:44:11.197Z,23.09
2022-08-03T22:48:14.733Z,23.08
2022-08-03T22:52:16.991Z,23.08
2022-08-03T22:56:18.874Z,23.04
2022-08-03T23:00:20.642Z,23.04
2022-08-03T23:04:26.049Z,23.03
2022-08-03T23:08:31.886Z,23.03
2022-08-03T23:12:36.303Z,22.97
2022-08-03T23:16:40.287Z,22.92
2022-08-03T23:20:44.699Z,22.89
2022-08-03T23:24:47.409Z,22.89
2022-08-03T23:28:49.838Z,22.87
2022-08-03T23:32:53.839Z,22.87
2022-08-03T23:36:57.064Z,22.87
2022-08-03T23:41:00.301Z,22.88
2022-08-03T23:45:05.814Z,22.87
2022-08-03T23:49:08.129Z,22.89
2022-08-03T23:53:28.767Z,22.91
2022-08-03T23:57:49.073Z,22.89
